In Rescue
 
Open Full Screen Window  High Contrast Mode
August 20, 2019 7:36 AM EDT
Present Weather: Mist
Weather Information
Wind Direction
  ---
Wind Speed
  00 kt (0 mph)
Wind Gust
  00 kt (0 mph)
Altimeter
30.06 in
Visibility
4 SM
Temperature
20° C
68° F
Dewpoint
20° C
68° F
Humidity
100%
Sky Condition
Clear
MVFR

METAR KAXV 201136Z AUTO 00000KT 4SM BR CLR 20/20 A3006 RMK AO2

FAA Disclaimer: The data displayed is for advisory purposes only and is not to be used for flight planning or operations.